createdAt,value
2024-03-02T00:03:04.664Z,33.00
2024-03-02T00:06:09.374Z,33.00
2024-03-02T00:09:13.829Z,33.00
2024-03-02T00:12:17.938Z,33.40
2024-03-02T00:15:42.060Z,32.80
2024-03-02T00:18:46.543Z,32.40
2024-03-02T00:21:49.962Z,32.20
2024-03-02T00:24:53.106Z,33.00
2024-03-02T00:27:56.599Z,31.00
2024-03-02T00:31:01.905Z,33.00
2024-03-02T00:34:08.150Z,31.80
2024-03-02T00:37:12.914Z,34.00
2024-03-02T00:40:16.196Z,33.50
2024-03-02T00:43:48.561Z,32.00
2024-03-02T00:46:51.925Z,33.00
2024-03-02T00:49:56.407Z,33.60
2024-03-02T00:52:59.518Z,32.00
2024-03-02T00:56:03.792Z,34.00
2024-03-02T00:59:07.797Z,32.00
2024-03-02T01:02:10.851Z,33.00
2024-03-02T01:05:15.507Z,33.00
2024-03-02T01:08:18.649Z,33.00
2024-03-02T01:11:23.759Z,34.00
2024-03-02T01:14:27.405Z,33.00
2024-03-02T01:17:30.550Z,34.00
2024-03-02T01:20:35.273Z,32.60
2024-03-02T01:23:38.788Z,31.00
2024-03-02T01:26:41.950Z,33.00
2024-03-02T01:29:45.018Z,33.00
2024-03-02T01:32:48.141Z,33.00
2024-03-02T01:35:52.708Z,33.00
2024-03-02T01:38:55.804Z,34.00
2024-03-02T01:41:59.263Z,33.00
2024-03-02T01:45:02.431Z,33.00
2024-03-02T01:48:06.934Z,33.00
2024-03-02T01:51:11.879Z,30.80
2024-03-02T01:54:15.080Z,31.00
2024-03-02T01:57:18.425Z,32.40
2024-03-02T02:00:22.180Z,31.00
2024-03-02T02:03:25.747Z,32.00
2024-03-02T02:06:30.389Z,31.60
2024-03-02T02:09:33.540Z,31.00
2024-03-02T02:12:38.304Z,32.80
2024-03-02T02:15:41.711Z,31.00
2024-03-02T02:18:44.901Z,32.80
2024-03-02T02:21:49.369Z,31.00
2024-03-02T02:24:52.728Z,31.00
2024-03-02T02:27:56.527Z,31.40
2024-03-02T02:31:01.548Z,31.00
2024-03-02T02:34:05.127Z,29.60
2024-03-02T02:37:09.685Z,31.00
2024-03-02T02:40:13.764Z,33.00
2024-03-02T02:43:16.853Z,31.00
2024-03-02T02:46:19.951Z,31.00
2024-03-02T02:49:23.208Z,30.00
2024-03-02T02:52:28.011Z,30.00
2024-03-02T02:55:31.121Z,29.00
2024-03-02T02:58:34.245Z,29.60
2024-03-02T03:01:37.350Z,30.00
2024-03-02T03:04:42.342Z,30.00
2024-03-02T03:07:46.937Z,30.00
2024-03-02T03:10:50.697Z,28.20
2024-03-02T03:13:55.191Z,29.75
2024-03-02T03:16:58.354Z,30.00
2024-03-02T03:20:02.050Z,31.00
2024-03-02T03:23:07.060Z,30.00
2024-03-02T03:26:10.193Z,29.00
2024-03-02T03:29:13.265Z,28.60
2024-03-02T03:32:16.374Z,29.75
2024-03-02T03:35:19.748Z,29.00
2024-03-02T03:38:24.222Z,30.00
2024-03-02T03:41:27.302Z,28.00
2024-03-02T03:44:30.404Z,29.00
2024-03-02T03:47:34.174Z,29.80
2024-03-02T03:50:37.366Z,28.60
2024-03-02T03:53:41.821Z,28.00
2024-03-02T03:56:44.910Z,30.00
2024-03-02T03:59:48.479Z,28.00
2024-03-02T04:02:51.539Z,29.00
2024-03-02T04:05:54.613Z,28.40
2024-03-02T04:08:59.067Z,28.00
2024-03-02T04:12:02.344Z,27.00
2024-03-02T04:15:07.396Z,29.00
2024-03-02T04:18:10.572Z,28.50
2024-03-02T04:21:13.961Z,27.00
2024-03-02T04:24:18.483Z,30.60
2024-03-02T04:27:21.746Z,31.00
2024-03-02T04:30:24.905Z,28.00
2024-03-02T04:33:28.046Z,28.00
2024-03-02T04:36:31.170Z,29.80
2024-03-02T04:39:36.840Z,28.00
2024-03-02T04:42:39.966Z,28.00
2024-03-02T04:45:43.811Z,28.00
2024-03-02T04:48:46.984Z,28.00
2024-03-02T04:51:50.060Z,30.00
2024-03-02T04:55:24.853Z,29.00
2024-03-02T04:58:27.965Z,29.60
2024-03-02T05:01:31.051Z,30.00
2024-03-02T05:04:34.198Z,28.00
2024-03-02T05:07:37.257Z,27.00
2024-03-02T05:10:41.696Z,28.00
2024-03-02T05:13:44.794Z,28.00
2024-03-02T05:16:48.058Z,28.00
2024-03-02T05:19:51.124Z,28.00
2024-03-02T05:22:54.220Z,28.40
2024-03-02T05:25:58.654Z,29.00
2024-03-02T05:29:01.875Z,28.20
2024-03-02T05:32:05.222Z,28.00
2024-03-02T05:35:09.170Z,28.00
2024-03-02T05:38:12.254Z,28.00
2024-03-02T05:41:16.710Z,29.00
2024-03-02T05:44:20.659Z,26.00
2024-03-02T05:47:23.725Z,28.00
2024-03-02T05:50:26.900Z,27.25
2024-03-02T05:53:30.046Z,27.50
2024-03-02T05:56:34.486Z,28.00
2024-03-02T05:59:37.598Z,27.00
2024-03-02T06:02:41.607Z,28.00
2024-03-02T06:05:44.679Z,27.50
2024-03-02T06:08:47.748Z,28.40
2024-03-02T06:11:52.355Z,28.00
2024-03-02T06:14:56.726Z,28.00
2024-03-02T06:18:00.870Z,28.00
2024-03-02T06:21:04.094Z,28.00
2024-03-02T06:24:07.985Z,28.00
2024-03-02T06:27:12.430Z,28.00
2024-03-02T06:30:16.025Z,27.80
2024-03-02T06:33:19.179Z,27.00
2024-03-02T06:36:22.319Z,29.00
2024-03-02T06:39:25.456Z,29.00
2024-03-02T06:42:34.285Z,29.00
2024-03-02T06:45:37.738Z,30.20
2024-03-02T06:48:40.910Z,30.80
2024-03-02T06:51:44.386Z,31.40
2024-03-02T06:54:47.639Z,31.00
2024-03-02T06:57:53.091Z,30.25
2024-03-02T07:00:56.247Z,30.33
2024-03-02T07:03:59.439Z,30.25
2024-03-02T07:07:02.630Z,29.20
2024-03-02T07:10:08.667Z,28.00
2024-03-02T07:13:14.154Z,30.00
2024-03-02T07:16:31.079Z,29.00
2024-03-02T07:19:34.268Z,28.75
2024-03-02T07:22:40.495Z,31.00
2024-03-02T07:28:52.887Z,26.00
2024-03-02T07:31:56.264Z,30.00
2024-03-02T07:34:59.549Z,30.00
2024-03-02T07:38:02.851Z,30.00
2024-03-02T07:41:06.689Z,30.00
2024-03-02T07:44:12.447Z,30.40
2024-03-02T07:47:15.693Z,30.00
2024-03-02T07:50:18.763Z,28.00
2024-03-02T07:53:21.862Z,29.00
2024-03-02T07:56:24.938Z,29.60
2024-03-02T07:59:29.507Z,29.25
2024-03-02T08:02:32.649Z,28.50
2024-03-02T08:05:35.776Z,28.75
2024-03-02T08:08:38.939Z,28.00
2024-03-02T08:11:42.146Z,28.75
2024-03-02T08:14:46.611Z,27.80
2024-03-02T08:17:51.175Z,28.25
2024-03-02T08:20:54.355Z,28.40
2024-03-02T08:23:57.443Z,30.00
2024-03-02T08:27:01.216Z,31.00
2024-03-02T08:30:08.308Z,29.00
2024-03-02T08:33:11.643Z,28.80
2024-03-02T08:36:14.937Z,28.80
2024-03-02T08:39:18.207Z,28.40
2024-03-02T08:42:21.350Z,29.00
2024-03-02T08:45:25.947Z,29.00
2024-03-02T08:48:29.522Z,29.00
2024-03-02T08:51:33.183Z,29.00
2024-03-02T08:54:37.468Z,29.00
2024-03-02T08:57:40.787Z,28.00
2024-03-02T09:00:45.531Z,29.00
2024-03-02T09:03:50.318Z,29.60
2024-03-02T09:06:53.646Z,28.00
2024-03-02T09:09:56.909Z,28.00
2024-03-02T09:13:00.899Z,27.80
2024-03-02T09:16:06.277Z,28.00
2024-03-02T09:19:10.957Z,29.00
2024-03-02T09:22:14.399Z,28.00
2024-03-02T09:25:17.827Z,28.00
2024-03-02T09:28:20.892Z,28.00
2024-03-02T09:31:26.592Z,30.00
2024-03-02T09:34:29.732Z,29.25
2024-03-02T09:37:32.830Z,29.00
2024-03-02T09:40:36.085Z,30.00
2024-03-02T09:43:39.944Z,29.00
2024-03-02T09:46:45.377Z,30.50
2024-03-02T09:49:48.716Z,29.00
2024-03-02T09:52:51.956Z,28.00
2024-03-02T09:55:55.169Z,29.00
2024-03-02T09:58:58.293Z,29.20
2024-03-02T10:02:04.125Z,31.00
2024-03-02T10:05:07.510Z,30.00
2024-03-02T10:08:10.955Z,30.40
2024-03-02T10:11:29.099Z,30.00
2024-03-02T10:14:32.187Z,30.25
2024-03-02T10:17:36.742Z,28.00
2024-03-02T10:20:40.301Z,28.00
2024-03-02T10:23:43.431Z,29.00
2024-03-02T10:26:46.538Z,28.00
2024-03-02T10:29:50.065Z,26.00
2024-03-02T10:32:55.481Z,28.00
2024-03-02T10:35:59.369Z,28.00
2024-03-02T10:39:05.081Z,28.00
2024-03-02T10:42:09.001Z,28.60
2024-03-02T10:45:12.663Z,27.00
2024-03-02T10:48:17.343Z,28.00
2024-03-02T10:51:20.457Z,27.60
2024-03-02T10:54:27.969Z,29.00
2024-03-02T10:57:40.899Z,28.00
2024-03-02T11:00:47.085Z,28.80
2024-03-02T11:03:52.036Z,28.50
2024-03-02T11:07:01.567Z,28.00
2024-03-02T11:10:10.111Z,30.00
2024-03-02T11:13:14.449Z,30.00
2024-03-02T11:16:27.840Z,28.00
2024-03-02T11:19:33.853Z,28.00
2024-03-02T11:22:38.078Z,29.00
2024-03-02T11:25:41.283Z,28.00
2024-03-02T11:28:44.344Z,29.00
2024-03-02T11:32:00.518Z,28.00
2024-03-02T11:35:05.960Z,28.40
2024-03-02T11:38:09.370Z,30.00
2024-03-02T11:41:12.717Z,28.00
2024-03-02T11:44:17.449Z,28.00
2024-03-02T11:47:20.632Z,29.00
2024-03-02T11:50:35.475Z,28.00
2024-03-02T11:53:44.132Z,28.00
2024-03-02T11:56:47.881Z,28.00
2024-03-02T11:59:51.990Z,27.60
2024-03-02T12:03:02.752Z,27.00
2024-03-02T12:06:08.354Z,27.60
2024-03-02T12:09:13.606Z,27.00
2024-03-02T12:12:19.945Z,27.00
2024-03-02T12:15:25.546Z,28.00
2024-03-02T12:18:28.792Z,28.00
2024-03-02T12:21:33.335Z,29.00
2024-03-02T12:24:37.005Z,28.00
2024-03-02T12:27:41.392Z,29.00
2024-03-02T12:30:44.578Z,29.00
2024-03-02T12:33:48.746Z,28.00
2024-03-02T12:36:54.403Z,29.00
2024-03-02T12:39:57.743Z,28.00
2024-03-02T12:43:00.898Z,29.00
2024-03-02T12:46:05.361Z,28.00
2024-03-02T12:49:12.204Z,28.00
2024-03-02T12:52:17.085Z,28.60
2024-03-02T12:55:22.916Z,29.40
2024-03-02T12:58:27.461Z,28.50
2024-03-02T13:01:30.834Z,28.00
2024-03-02T13:04:34.023Z,28.00
2024-03-02T13:07:38.694Z,27.00
2024-03-02T13:10:42.404Z,27.00
2024-03-02T13:13:45.539Z,25.50
2024-03-02T13:16:49.297Z,27.00
2024-03-02T13:19:55.915Z,27.80
2024-03-02T13:23:00.335Z,26.00
2024-03-02T13:26:03.958Z,28.00
2024-03-02T13:29:07.263Z,25.60
2024-03-02T13:32:11.037Z,27.00
2024-03-02T13:35:14.206Z,27.00
2024-03-02T13:38:18.957Z,27.00
2024-03-02T13:41:22.761Z,28.40
2024-03-02T13:44:26.024Z,27.00
2024-03-02T13:47:29.904Z,27.80
2024-03-02T13:54:50.249Z,28.00
2024-03-02T13:57:55.911Z,27.00
2024-03-02T14:00:59.724Z,27.00
2024-03-02T14:04:03.440Z,26.00
2024-03-02T14:07:08.373Z,26.60
2024-03-02T14:10:12.574Z,27.00
2024-03-02T14:13:18.064Z,27.00
2024-03-02T14:16:21.785Z,27.00
2024-03-02T14:19:28.312Z,26.00
2024-03-02T14:22:35.176Z,27.00
2024-03-02T14:25:38.765Z,26.50
2024-03-02T14:28:49.866Z,26.00
2024-03-02T14:31:55.092Z,25.40
2024-03-02T14:34:58.451Z,26.50
2024-03-02T14:38:01.947Z,25.80
2024-03-02T14:41:05.478Z,25.60
2024-03-02T14:44:10.567Z,25.60
2024-03-02T14:47:14.377Z,26.00
2024-03-02T15:01:40.291Z,26.00
2024-03-02T15:04:44.675Z,25.00
2024-03-02T15:07:47.737Z,27.00
2024-03-02T15:10:51.030Z,24.60
2024-03-02T15:13:54.265Z,26.00
2024-03-02T15:16:59.319Z,27.00
2024-03-02T15:20:02.426Z,26.00
2024-03-02T15:23:05.829Z,27.00
2024-03-02T15:26:10.426Z,26.20
2024-03-02T15:29:13.686Z,26.00
2024-03-02T15:32:18.154Z,28.00
2024-03-02T15:35:21.288Z,28.00
2024-03-02T15:38:32.751Z,26.60
2024-03-02T15:41:37.793Z,27.00
2024-03-02T15:44:42.549Z,28.00
2024-03-02T15:47:47.848Z,25.60
2024-03-02T15:50:51.645Z,26.00
2024-03-02T15:53:55.393Z,28.00
2024-03-02T15:56:58.526Z,27.00
2024-03-02T16:00:01.728Z,26.75
2024-03-02T16:03:16.016Z,27.50
2024-03-02T16:06:19.091Z,27.00
2024-03-02T16:09:22.235Z,28.00
2024-03-02T16:12:25.583Z,27.00
2024-03-02T16:15:29.647Z,27.00
2024-03-02T16:18:35.352Z,28.00
2024-03-02T16:21:38.631Z,28.00
2024-03-02T16:24:41.769Z,26.20
2024-03-02T16:27:44.975Z,27.25
2024-03-02T16:30:48.077Z,28.00
2024-03-02T16:33:52.601Z,27.00
2024-03-02T16:36:55.830Z,28.00
2024-03-02T16:39:58.975Z,27.00
2024-03-02T16:43:02.067Z,27.33
2024-03-02T16:46:06.946Z,28.00
2024-03-02T16:49:11.560Z,27.00
2024-03-02T16:52:16.023Z,28.00
2024-03-02T16:55:20.034Z,27.40
2024-03-02T16:58:23.135Z,27.75
2024-03-02T17:01:28.473Z,27.00
2024-03-02T17:04:34.452Z,27.20
2024-03-02T17:07:37.551Z,28.00
2024-03-02T17:10:41.439Z,27.00
2024-03-02T17:13:44.511Z,27.25
2024-03-02T17:16:47.688Z,27.80
2024-03-02T17:19:52.192Z,27.80
2024-03-02T17:22:55.248Z,30.00
2024-03-02T17:25:58.386Z,28.75
2024-03-02T17:29:01.553Z,28.60
2024-03-02T17:32:04.964Z,29.00
2024-03-02T17:35:09.735Z,28.00
2024-03-02T17:38:12.860Z,28.00
2024-03-02T17:41:15.984Z,28.00
2024-03-02T17:44:19.063Z,29.00
2024-03-02T17:47:22.206Z,30.00
2024-03-02T17:50:26.719Z,30.00
2024-03-02T17:53:30.894Z,29.60
2024-03-02T17:56:34.116Z,29.40
2024-03-02T17:59:38.609Z,31.00
2024-03-02T18:02:42.104Z,30.00
2024-03-02T18:05:46.561Z,29.00
2024-03-02T18:08:50.569Z,28.60
2024-03-02T18:11:53.758Z,30.75
2024-03-02T18:14:57.054Z,31.00
2024-03-02T18:18:01.006Z,30.00
2024-03-02T18:21:05.894Z,31.00
2024-03-02T18:24:09.284Z,32.00
2024-03-02T18:27:12.398Z,32.00
2024-03-02T18:30:15.996Z,32.75
2024-03-02T18:33:19.222Z,32.00
2024-03-02T18:36:23.676Z,33.00
2024-03-02T18:39:26.819Z,32.40
2024-03-02T18:42:30.700Z,31.20
2024-03-02T18:45:33.901Z,34.00
2024-03-02T18:48:37.114Z,32.00
2024-03-02T18:51:43.414Z,33.00
2024-03-02T18:54:46.573Z,34.00
2024-03-02T18:57:49.736Z,33.00
2024-03-02T19:00:53.183Z,34.60
2024-03-02T19:03:56.316Z,34.00
2024-03-02T19:07:00.902Z,34.60
2024-03-02T19:10:06.217Z,36.00
2024-03-02T19:13:09.538Z,34.00
2024-03-02T19:16:13.658Z,35.00
2024-03-02T19:19:17.364Z,35.25
2024-03-02T19:22:24.665Z,37.00
2024-03-02T19:25:28.178Z,35.20
2024-03-02T19:28:31.666Z,35.75
2024-03-02T19:31:34.858Z,35.00
2024-03-02T19:34:38.096Z,34.00
2024-03-02T19:37:42.905Z,35.00
2024-03-02T19:40:46.348Z,35.00
2024-03-02T19:43:49.423Z,34.00
2024-03-02T19:46:52.510Z,35.00
2024-03-02T19:49:55.695Z,34.00
2024-03-02T19:53:00.294Z,33.60
2024-03-02T19:56:03.549Z,35.40
2024-03-02T19:59:06.670Z,34.00
2024-03-02T20:02:15.188Z,35.60
2024-03-02T20:05:19.949Z,34.00
2024-03-02T20:08:24.454Z,34.00
2024-03-02T20:11:27.583Z,35.00
2024-03-02T20:14:31.199Z,35.00
2024-03-02T20:17:34.370Z,34.00
2024-03-02T20:20:37.494Z,33.00
2024-03-02T20:23:41.951Z,34.00
2024-03-02T20:26:46.017Z,34.00
2024-03-02T20:29:49.147Z,34.00
2024-03-02T20:32:52.519Z,35.00
2024-03-02T20:35:55.683Z,34.00
2024-03-02T20:39:00.216Z,34.40
2024-03-02T20:42:04.156Z,34.00
2024-03-02T20:45:07.997Z,34.00
2024-03-02T20:48:11.159Z,34.50
2024-03-02T20:51:14.277Z,34.00
2024-03-02T20:54:19.880Z,34.00
2024-03-02T20:57:22.963Z,35.00
2024-03-02T21:00:26.800Z,34.00
2024-03-02T21:03:29.948Z,35.00
2024-03-02T21:06:33.384Z,35.00
2024-03-02T21:09:38.025Z,34.25
2024-03-02T21:12:41.284Z,35.40
2024-03-02T21:15:44.542Z,35.00
2024-03-02T21:18:48.007Z,36.00
2024-03-02T21:21:51.250Z,37.00
2024-03-02T21:25:01.778Z,37.00
2024-03-02T21:28:05.399Z,36.20
2024-03-02T21:31:08.446Z,36.80
2024-03-02T21:34:11.634Z,37.00
2024-03-02T21:37:14.821Z,35.00
2024-03-02T21:40:20.416Z,35.00
2024-03-02T21:43:23.713Z,35.60
2024-03-02T21:46:26.909Z,35.00
2024-03-02T21:49:31.029Z,35.00
2024-03-02T21:52:34.101Z,37.00
2024-03-02T21:55:38.606Z,37.00
2024-03-02T21:58:41.792Z,35.00
2024-03-02T22:01:44.943Z,37.00
2024-03-02T22:04:48.098Z,35.00
2024-03-02T22:07:51.257Z,35.00
2024-03-02T22:10:56.047Z,36.75
2024-03-02T22:13:59.211Z,37.00
2024-03-02T22:17:02.300Z,35.40
2024-03-02T22:20:06.257Z,36.00
2024-03-02T22:23:09.433Z,36.20
2024-03-02T22:26:13.882Z,37.00
2024-03-02T22:29:17.038Z,35.40
2024-03-02T22:32:20.107Z,34.00
2024-03-02T22:35:24.126Z,35.00
2024-03-02T22:38:27.295Z,35.00
2024-03-02T22:41:31.827Z,35.60
2024-03-02T22:44:36.509Z,35.60
2024-03-02T22:47:39.662Z,35.00
2024-03-02T22:50:42.758Z,35.00
2024-03-02T22:53:45.804Z,35.00
2024-03-02T22:56:50.300Z,35.00
2024-03-02T22:59:53.397Z,35.00
2024-03-02T23:02:56.435Z,35.00
2024-03-02T23:05:59.678Z,35.00
2024-03-02T23:09:02.831Z,35.00
2024-03-02T23:12:08.222Z,37.00
2024-03-02T23:15:11.666Z,40.00
2024-03-02T23:18:14.853Z,40.50
2024-03-02T23:21:17.984Z,41.00
2024-03-02T23:24:21.269Z,43.00
2024-03-02T23:27:25.677Z,45.00
2024-03-02T23:30:30.302Z,43.00
2024-03-02T23:33:33.408Z,46.40
2024-03-02T23:36:36.542Z,43.00
2024-03-02T23:40:06.890Z,44.80
2024-03-02T23:43:12.543Z,47.25
2024-03-02T23:46:15.884Z,45.00
2024-03-02T23:49:19.054Z,43.60
2024-03-02T23:52:22.243Z,44.40
2024-03-02T23:55:25.963Z,43.00
2024-03-02T23:58:30.486Z,46.25
